Share

Marysville, KS

Beatrice Municipal (KBIE) Elev 1322 ft | 40.30 °N, 96.75 °W | Change Station

Current weather conditions updated 16 minutes ago

Clear
Clear
65 °F
Feels Like 65 °F
N
13
Wind Variable Wind from SSE
Sunrise 6:44 AM
Sunset 8:07 PM
Moon Waning Gibbous

Tomorrow is forecast to be Much Warmer than today.

Pressure 30.07 in
Visibility 7.0 miles
Clouds Clear
Dew Point 38 °F
Humidity 37%
Rainfall 0.00 in
Snow Depth Not available.
UV 0 out of 16
Pollen 10.80 out of 12
Air Quality Not available.
Flu Activity No Activity
METAR KBIE 190055Z AUTO 15011KT 7SM CLR 18/04 A3007 RMK AO2 T01840036

More Conditions Fewer Conditions

Pressure 30.07 in
Visibility 7.0 miles
Clouds Clear
Dew Point 38 °F
Humidity 37%
Rainfall 0.00 in
Snow Depth Not available.
UV 0 out of 16
Pollen 10.80 out of 12
Air Quality Not available.
Flu Activity No Activity
METAR KBIE 190055Z AUTO 15011KT 7SM CLR 18/04 A3007 RMK AO2 T01840036

More Conditions Fewer Conditions

10-Day Weather Forecast

Almanac

Astronomy

Apr. 18, 2014 Rise Set
Actual Time 6:44 AM CDT 8:07 PM CDT
Civil Twilight 6:16 AM CDT 8:36 PM CDT
Nautical Twilight 5:42 AM CDT 9:10 PM CDT
Astronomical Twilight 5:06 AM CDT 9:45 PM CDT
Moon 11:54 PM CDT (4/18) 9:07 AM CDT (4/18)
Length of Visible Light 14h 19m
Length of Day
13h 23m
Tomorrow will be 2m 27s longer.
Waning Gibbous, 84% of the Moon is Illuminated
Today
Waning Gibbous
Apr 22
Last Quarter
Apr 29
New
May 6
First Quarter
May 14
Full

Today's Extremes

State Highs State Lows

Community

  • Cloudy spring view
    Cloudy spring view
  • Old barn
    Old barn
  • What's for Lunch?
    What's for Lunch?
  • SUNRISE THROUGH THE TREES.
    SUNRISE THROUGH THE TREES.
  • Dog Wood Blossoms
    Dog Wood Blossoms

WunderPhotos

Upload Photos

1,702,562 photos uploaded!

WunderBlogs® & News

Nearby

Snow Depth

Station Depth Elevation
No new snow has been reported.

Coastal Water Temperatures

Place Temperature
No Stations Reporting

Earthquake Activity

City Distance Mag. Time & Date
No recent earthquake activity has been reported nearby.
Minimum magnitude displayed is 2.5.

Nearby Weather Stations

Station Location Temp. Dew Point Humidity Wind Precip. Elev Updated Type
MesoWest WINFRD , Frankfort, KS 65 °F - - North  at  - 0.00 in / hr 1174 ft 7:00 PM CDT MADIS
MesoWest AXTELL , Axtell, KS 62 °F - - North  at  - 0.00 in / hr 1337 ft 7:15 PM CDT MADIS
MesoWest LILLIS , Vermillion, KS 64 °F - - North  at  - 0.00 in / hr 1252 ft 7:00 PM CDT MADIS
MesoWest STEEL1 , Steele City, NE 68 °F - - North  at  - 0.00 in / hr 1275 ft 7:00 PM CDT MADIS

Show More Stations Show Fewer Stations

What do you think?

We're not finished. Please let us know what you like, what you don't like, and what you are still missing.